»·PEaware :: N9622C KAVX-KSAN

N9622C :: KAVX-KSAN

FLIGHT INFORMATION

Flight Status: Arrived
Operator: Privately registered:
United States
More flights under this callsign
Pilot: Michael D. (17574)
Aircraft: ECLIPSE 500
(EA50)
More flights by this aircraft type
Origin: KAVX Catalina
United States
Destination: KSAN San Diego Intl-Lindbergh
United States
More flights between these airports :: More routes between these airports
Route: SXC V208 LAX118R CARDI MZB320R MZB
File this flight plan on PilotEdge
Remarks: TEC route CSTN54
Altitude:
(Current/Filed)
9,000ft
Speed:
(Current/Filed)
200kts
Departed: 13-Feb-18 11:25 PM
Arrived: 13-Feb-18 11:58 PM
Distance/Time
Traveled:
74nm/0:32
Distance/Time
To Go:
Arrived

Flight Plot

Page will automatically refresh every two minutes.


Map Options




Map Legend


Flown Route
Filed Route
Departure Airport
Arrival Airport
Navaid (VOR, NDB)
Fix

Horizontal Profiles

Position Reports

Time Latitude Longitude Heading Altitude Ground
Speed
13-Feb-18 23:14 33.403452 -118.415157 324 1569ft 0kts
13-Feb-18 23:15 33.403452 -118.415157 324 1569ft 0kts
13-Feb-18 23:16 33.403452 -118.415157 324 1569ft 0kts
13-Feb-18 23:17 33.403452 -118.415157 324 1569ft 0kts
13-Feb-18 23:18 33.403452 -118.415157 324 1569ft 0kts
13-Feb-18 23:19 33.403452 -118.415157 324 1569ft 0kts
13-Feb-18 23:20 33.403452 -118.415157 324 1569ft 0kts
13-Feb-18 23:21 33.403452 -118.415157 324 1569ft 0kts
13-Feb-18 23:22 33.403452 -118.415157 324 1569ft 0kts
13-Feb-18 23:23 33.403452 -118.415157 324 1569ft 0kts
13-Feb-18 23:24 33.403452 -118.415157 324 1569ft 0kts
13-Feb-18 23:25 33.403452 -118.415157 324 1569ft 0kts
13-Feb-18 23:26 33.403452 -118.415157 324 1569ft 0kts
13-Feb-18 23:27 33.403452 -118.415157 324 1569ft 0kts
13-Feb-18 23:28 33.403452 -118.415157 324 1569ft 0kts
13-Feb-18 23:29 33.403452 -118.415157 324 1569ft 0kts
13-Feb-18 23:30 33.404783 -118.415090 6 1569ft 16kts
13-Feb-18 23:31 33.407216 -118.411373 20 1569ft 0kts
13-Feb-18 23:32 33.399772 -118.425357 235 1747ft 133kts
13-Feb-18 23:33 33.363459 -118.456059 155 3196ft 212kts
13-Feb-18 23:34 33.368930 -118.387799 64 5013ft 255kts
13-Feb-18 23:35 33.376218 -118.308634 114 7007ft 256kts
13-Feb-18 23:36 33.355152 -118.227001 106 8910ft 262kts
13-Feb-18 23:37 33.339069 -118.133745 102 8990ft 297kts
13-Feb-18 23:38 33.325121 -118.037083 101 8990ft 295kts
13-Feb-18 23:39 33.311982 -117.941105 101 8989ft 291kts
13-Feb-18 23:40 33.299259 -117.847093 100 8989ft 283kts
13-Feb-18 23:41 33.287885 -117.762835 101 8987ft 251kts
13-Feb-18 23:42 33.277278 -117.683929 101 8988ft 234kts
13-Feb-18 23:43 33.229631 -117.659549 190 8989ft 229kts
13-Feb-18 23:44 33.167874 -117.677696 190 8988ft 227kts
13-Feb-18 23:45 33.106941 -117.673704 125 7871ft 254kts
13-Feb-18 23:46 33.068376 -117.599537 121 6365ft 270kts
13-Feb-18 23:47 33.027849 -117.523248 121 5019ft 271kts
13-Feb-18 23:48 32.987740 -117.448721 121 4984ft 264kts
13-Feb-18 23:49 32.948137 -117.375478 121 4981ft 262kts
13-Feb-18 23:50 32.910442 -117.302455 105 4974ft 269kts
13-Feb-18 23:51 32.893230 -117.217376 102 4982ft 278kts
13-Feb-18 23:52 32.875184 -117.127413 102 4985ft 281kts
13-Feb-18 23:53 32.856970 -117.036373 102 4985ft 284kts
13-Feb-18 23:54 32.830350 -116.950538 141 4897ft 271kts
13-Feb-18 23:55 32.773982 -116.896624 141 4002ft 251kts
13-Feb-18 23:56 32.724066 -116.860195 190 3982ft 183kts
13-Feb-18 23:57 32.676049 -116.872496 218 3983ft 185kts
13-Feb-18 23:58 32.670077 -116.930118 287 3984ft 193kts
13-Feb-18 23:59 32.685670 -116.993046 287 3593ft 191kts
14-Feb-18 00:00 32.699002 -117.047540 286 2560ft 163kts
14-Feb-18 00:01 32.710479 -117.094634 286 1443ft 131kts
14-Feb-18 00:02 32.719204 -117.131322 286 781ft 104kts
14-Feb-18 00:03 32.727207 -117.163526 286 448ft 101kts
14-Feb-18 00:04 32.734000 -117.191288 285 19ft 52kts
14-Feb-18 00:05 32.733622 -117.194195 105 19ft 7kts
14-Feb-18 00:06 32.731978 -117.192780 233 17ft 14kts
14-Feb-18 00:07 32.731743 -117.193501 253 17ft 0kts
14-Feb-18 00:08 32.731743 -117.193501 253 17ft 0kts

Navigation Log

Ident Type
1. KAVX Airport
2. SXC Navaid
3. CARDI Fix
4. MZB Navaid
5. KSAN Airport